createdAt,value
2022-08-26T00:02:07.140Z,69.22
2022-08-26T00:04:34.852Z,69.49
2022-08-26T00:07:05.355Z,69.48
2022-08-26T00:09:33.507Z,69.23
2022-08-26T00:12:07.029Z,69.15
2022-08-26T00:14:34.597Z,69.35
2022-08-26T00:17:02.329Z,69.15
2022-08-26T00:19:30.174Z,69.42
2022-08-26T00:21:57.873Z,69.34
2022-08-26T00:24:26.817Z,68.34
2022-08-26T00:26:54.448Z,67.39
2022-08-26T00:29:22.208Z,67.32
2022-08-26T00:31:50.191Z,66.99
2022-08-26T00:34:19.526Z,67.19
2022-08-26T00:36:47.382Z,67.27
2022-08-26T00:39:16.901Z,66.78
2022-08-26T00:41:46.086Z,66.47
2022-08-26T00:44:13.890Z,67.08
2022-08-26T00:46:46.354Z,66.75
2022-08-26T00:49:15.162Z,66.79
2022-08-26T00:51:45.517Z,66.50
2022-08-26T00:54:13.267Z,66.54
2022-08-26T00:56:42.833Z,67.14
2022-08-26T00:59:13.364Z,67.13
2022-08-26T01:01:42.362Z,67.09
2022-08-26T01:04:13.994Z,66.89
2022-08-26T01:06:41.922Z,66.95
2022-08-26T01:09:12.051Z,67.06
2022-08-26T01:11:39.874Z,67.19
2022-08-26T01:14:07.944Z,67.38
2022-08-26T01:16:37.458Z,67.25
2022-08-26T01:19:07.856Z,67.32
2022-08-26T01:21:40.727Z,67.34
2022-08-26T01:24:10.380Z,67.17
2022-08-26T01:26:40.508Z,67.32
2022-08-26T01:29:08.539Z,67.18
2022-08-26T01:31:37.714Z,67.20
2022-08-26T01:34:07.274Z,67.25
2022-08-26T01:36:36.664Z,67.17
2022-08-26T01:39:05.877Z,67.19
2022-08-26T01:41:36.505Z,67.10
2022-08-26T01:44:05.256Z,67.10
2022-08-26T01:46:32.868Z,67.20
2022-08-26T01:49:01.346Z,67.14
2022-08-26T01:51:29.913Z,67.21
2022-08-26T01:53:57.842Z,66.99
2022-08-26T01:56:33.139Z,66.92
2022-08-26T01:59:02.511Z,66.83
2022-08-26T02:01:30.103Z,67.10
2022-08-26T02:04:00.273Z,66.75
2022-08-26T02:06:27.936Z,66.88
2022-08-26T02:08:56.676Z,66.80
2022-08-26T02:11:24.331Z,66.96
2022-08-26T02:13:54.787Z,66.77
2022-08-26T02:16:24.950Z,66.76
2022-08-26T02:18:53.290Z,66.75
2022-08-26T02:21:21.015Z,66.78
2022-08-26T02:23:49.121Z,66.86
2022-08-26T02:26:18.149Z,66.86
2022-08-26T02:28:47.992Z,66.80
2022-08-26T02:31:15.626Z,67.08
2022-08-26T02:33:44.601Z,66.96
2022-08-26T02:36:13.472Z,66.67
2022-08-26T02:38:43.257Z,66.86
2022-08-26T02:41:11.233Z,66.76
2022-08-26T02:43:38.858Z,66.79
2022-08-26T02:46:06.550Z,66.88
2022-08-26T02:48:34.169Z,66.67
2022-08-26T02:51:05.060Z,66.69
2022-08-26T02:53:35.573Z,66.74
2022-08-26T02:56:03.642Z,66.86
2022-08-26T02:58:31.412Z,66.62
2022-08-26T03:00:59.384Z,66.63
2022-08-26T03:03:29.352Z,66.56
2022-08-26T03:05:58.260Z,66.54
2022-08-26T03:08:27.558Z,66.63
2022-08-26T03:10:55.172Z,66.83
2022-08-26T03:13:23.585Z,66.75
2022-08-26T03:15:51.234Z,66.66
2022-08-26T03:18:18.915Z,66.58
2022-08-26T03:20:48.273Z,66.62
2022-08-26T03:23:16.453Z,66.65
2022-08-26T03:25:51.190Z,66.76
2022-08-26T03:28:19.434Z,66.81
2022-08-26T03:30:47.477Z,66.72
2022-08-26T03:33:15.290Z,66.64
2022-08-26T03:35:43.676Z,66.78
2022-08-26T03:38:11.345Z,66.66
2022-08-26T03:40:39.887Z,66.58
2022-08-26T03:43:10.359Z,66.68
2022-08-26T03:45:38.527Z,66.43
2022-08-26T03:48:06.325Z,66.51
2022-08-26T03:50:35.779Z,66.48
2022-08-26T03:53:04.117Z,66.74
2022-08-26T03:55:32.453Z,66.64
2022-08-26T03:58:01.093Z,66.75
2022-08-26T04:00:30.160Z,66.51
2022-08-26T04:02:57.847Z,66.72
2022-08-26T04:05:25.552Z,66.74
2022-08-26T04:07:53.111Z,66.69
2022-08-26T04:10:28.804Z,66.59
2022-08-26T04:12:58.866Z,66.80
2022-08-26T04:15:26.968Z,66.40
2022-08-26T04:17:57.338Z,66.52
2022-08-26T04:20:25.317Z,66.46
2022-08-26T04:22:53.094Z,66.48
2022-08-26T04:25:21.468Z,66.46
2022-08-26T04:27:50.021Z,66.54
2022-08-26T04:30:20.004Z,66.58
2022-08-26T04:32:47.727Z,66.66
2022-08-26T04:35:17.513Z,66.60
2022-08-26T04:37:45.363Z,66.83
2022-08-26T04:40:13.222Z,66.71
2022-08-26T04:42:40.912Z,66.74
2022-08-26T04:45:09.943Z,66.54
2022-08-26T04:47:38.244Z,66.92
2022-08-26T04:50:06.935Z,66.71
2022-08-26T04:52:36.611Z,67.06
2022-08-26T04:55:06.534Z,67.19
2022-08-26T04:57:36.375Z,66.89
2022-08-26T05:00:04.779Z,66.61
2022-08-26T05:02:32.402Z,66.72
2022-08-26T05:05:00.735Z,66.73
2022-08-26T05:07:28.608Z,67.81
2022-08-26T05:09:57.737Z,68.34
2022-08-26T05:12:25.354Z,68.29
2022-08-26T05:14:53.450Z,67.41
2022-08-26T05:17:21.083Z,67.30
2022-08-26T05:19:50.621Z,66.88
2022-08-26T05:22:18.429Z,66.72
2022-08-26T05:24:46.489Z,67.05
2022-08-26T05:27:15.745Z,66.62
2022-08-26T05:29:45.702Z,66.37
2022-08-26T05:32:13.777Z,66.59
2022-08-26T05:34:42.982Z,66.49
2022-08-26T05:37:10.717Z,66.75
2022-08-26T05:39:41.346Z,66.01
2022-08-26T05:42:11.681Z,66.63
2022-08-26T05:44:55.426Z,66.69
2022-08-26T05:47:23.516Z,66.66
2022-08-26T05:49:51.656Z,66.58
2022-08-26T05:52:19.665Z,66.90
2022-08-26T05:54:47.705Z,66.61
2022-08-26T05:57:15.888Z,66.72
2022-08-26T05:59:45.147Z,66.74
2022-08-26T06:02:13.992Z,66.83
2022-08-26T06:04:43.441Z,66.74
2022-08-26T06:07:11.562Z,66.98
2022-08-26T06:09:41.498Z,66.97
2022-08-26T06:12:09.340Z,66.88
2022-08-26T06:14:37.046Z,66.62
2022-08-26T06:17:06.346Z,66.80
2022-08-26T06:19:37.267Z,66.77
2022-08-26T06:22:29.311Z,66.84
2022-08-26T06:25:14.560Z,66.97
2022-08-26T06:27:42.162Z,66.71
2022-08-26T06:30:10.423Z,66.98
2022-08-26T06:32:39.416Z,66.76
2022-08-26T06:35:12.241Z,66.84
2022-08-26T06:37:40.054Z,66.51
2022-08-26T06:40:09.428Z,66.35
2022-08-26T06:42:39.118Z,66.52
2022-08-26T06:45:07.462Z,66.17
2022-08-26T06:47:36.293Z,66.02
2022-08-26T06:50:05.676Z,65.69
2022-08-26T06:52:33.302Z,65.96
2022-08-26T06:55:02.626Z,65.35
2022-08-26T06:57:32.853Z,65.36
2022-08-26T07:00:02.776Z,66.04
2022-08-26T07:02:30.692Z,66.19
2022-08-26T07:04:58.458Z,65.92
2022-08-26T07:07:27.475Z,66.00
2022-08-26T07:09:55.372Z,65.68
2022-08-26T07:12:23.024Z,65.45
2022-08-26T07:14:53.012Z,65.07
2022-08-26T07:17:21.482Z,65.27
2022-08-26T07:19:53.633Z,65.45
2022-08-26T07:22:21.548Z,65.13
2022-08-26T07:24:50.704Z,64.97
2022-08-26T07:27:18.277Z,65.17
2022-08-26T07:29:45.973Z,64.88
2022-08-26T07:32:14.220Z,65.00
2022-08-26T07:34:42.545Z,64.83
2022-08-26T07:37:10.123Z,65.09
2022-08-26T07:39:37.955Z,64.78
2022-08-26T07:42:09.495Z,65.25
2022-08-26T07:44:37.601Z,65.16
2022-08-26T07:47:10.067Z,65.00
2022-08-26T07:49:52.685Z,65.04
2022-08-26T07:52:25.317Z,64.92
2022-08-26T07:54:54.144Z,64.77
2022-08-26T07:57:24.277Z,64.97
2022-08-26T07:59:52.106Z,64.76
2022-08-26T08:02:22.188Z,64.55
2022-08-26T08:04:49.961Z,64.56
2022-08-26T08:07:17.890Z,64.60
2022-08-26T08:09:45.480Z,65.29
2022-08-26T08:12:14.220Z,65.41
2022-08-26T08:14:45.359Z,64.80
2022-08-26T08:17:13.252Z,64.95
2022-08-26T08:19:40.889Z,64.83
2022-08-26T08:22:17.626Z,64.90
2022-08-26T08:24:49.663Z,64.79
2022-08-26T08:27:22.815Z,64.74
2022-08-26T08:29:54.899Z,64.81
2022-08-26T08:32:24.378Z,64.81
2022-08-26T08:34:52.936Z,64.83
2022-08-26T08:37:21.006Z,64.61
2022-08-26T08:39:49.466Z,64.72
2022-08-26T08:42:29.256Z,64.59
2022-08-26T08:44:58.592Z,64.45
2022-08-26T08:47:29.097Z,64.41
2022-08-26T08:49:57.213Z,64.41
2022-08-26T08:52:29.056Z,64.46
2022-08-26T08:54:57.193Z,64.36
2022-08-26T08:57:26.840Z,64.31
2022-08-26T08:59:55.590Z,64.46
2022-08-26T09:02:25.337Z,64.54
2022-08-26T09:04:57.517Z,64.28
2022-08-26T09:07:27.199Z,64.50
2022-08-26T09:09:55.760Z,64.52
2022-08-26T09:12:29.490Z,64.28
2022-08-26T09:14:59.790Z,64.63
2022-08-26T09:17:31.331Z,64.28
2022-08-26T09:20:02.215Z,64.43
2022-08-26T09:22:30.679Z,64.24
2022-08-26T09:24:58.554Z,64.28
2022-08-26T09:27:44.302Z,64.26
2022-08-26T09:30:13.180Z,63.99
2022-08-26T09:32:44.424Z,63.95
2022-08-26T09:35:25.288Z,63.96
2022-08-26T09:37:53.680Z,63.95
2022-08-26T09:40:24.048Z,63.81
2022-08-26T09:43:08.019Z,63.94
2022-08-26T09:45:35.846Z,63.94
2022-08-26T09:48:04.967Z,63.98
2022-08-26T09:50:33.305Z,63.84
2022-08-26T09:53:12.973Z,63.80
2022-08-26T09:55:41.949Z,64.02
2022-08-26T09:58:10.374Z,63.82
2022-08-26T10:00:38.766Z,63.84
2022-08-26T10:03:09.072Z,64.05
2022-08-26T10:05:39.737Z,63.87
2022-08-26T10:08:23.582Z,63.86
2022-08-26T10:10:53.424Z,63.71
2022-08-26T10:13:24.442Z,63.84
2022-08-26T10:15:55.660Z,63.92
2022-08-26T10:18:26.674Z,64.19
2022-08-26T10:20:59.666Z,63.79
2022-08-26T10:23:28.524Z,63.71
2022-08-26T10:25:58.960Z,63.78
2022-08-26T10:28:28.977Z,63.71
2022-08-26T10:30:57.837Z,63.60
2022-08-26T10:33:27.264Z,63.62
2022-08-26T10:35:56.561Z,63.64
2022-08-26T10:38:28.728Z,63.77
2022-08-26T10:40:58.630Z,63.79
2022-08-26T10:43:27.626Z,63.72
2022-08-26T10:45:56.206Z,63.79
2022-08-26T10:48:25.607Z,63.64
2022-08-26T10:51:05.661Z,63.72
2022-08-26T10:53:35.913Z,63.78
2022-08-26T10:56:06.300Z,63.76
2022-08-26T10:58:50.023Z,63.94
2022-08-26T11:01:36.409Z,63.70
2022-08-26T11:04:11.341Z,63.73
2022-08-26T11:06:41.926Z,63.75
2022-08-26T11:09:09.998Z,63.73
2022-08-26T11:11:48.012Z,63.69
2022-08-26T11:14:42.089Z,63.79
2022-08-26T11:17:36.411Z,63.87
2022-08-26T11:20:09.244Z,63.71
2022-08-26T11:22:47.875Z,63.90
2022-08-26T11:25:15.779Z,63.72
2022-08-26T11:28:04.306Z,63.82
2022-08-26T11:30:37.375Z,63.68
2022-08-26T11:33:06.169Z,63.75
2022-08-26T11:35:46.946Z,63.55
2022-08-26T11:38:19.178Z,63.45
2022-08-26T11:40:46.802Z,63.74
2022-08-26T11:43:16.888Z,63.53
2022-08-26T11:45:44.917Z,63.44
2022-08-26T11:48:15.876Z,63.56
2022-08-26T11:50:53.119Z,63.42
2022-08-26T11:53:22.953Z,63.46
2022-08-26T11:55:51.390Z,63.32
2022-08-26T11:58:20.867Z,63.47
2022-08-26T12:00:51.349Z,63.47
2022-08-26T12:03:20.811Z,63.37
2022-08-26T12:05:51.842Z,63.25
2022-08-26T12:08:21.557Z,63.65
2022-08-26T12:10:53.234Z,63.48
2022-08-26T12:13:22.238Z,63.40
2022-08-26T12:15:53.078Z,63.28
2022-08-26T12:18:29.554Z,63.42
2022-08-26T12:21:05.770Z,63.41
2022-08-26T12:23:50.855Z,63.45
2022-08-26T12:26:26.655Z,63.58
2022-08-26T12:28:58.924Z,63.57
2022-08-26T12:31:28.695Z,63.45
2022-08-26T12:33:57.068Z,63.55
2022-08-26T12:36:28.802Z,63.44
2022-08-26T12:38:58.383Z,63.36
2022-08-26T12:41:41.622Z,63.39
2022-08-26T12:44:09.399Z,63.22
2022-08-26T12:46:37.579Z,63.29
2022-08-26T12:49:05.322Z,63.32
2022-08-26T12:51:33.125Z,63.21
2022-08-26T12:54:02.249Z,63.17
2022-08-26T12:56:32.429Z,63.34
2022-08-26T12:59:11.171Z,63.37
2022-08-26T13:01:42.912Z,63.25
2022-08-26T13:04:26.036Z,63.31
2022-08-26T13:07:08.517Z,63.10
2022-08-26T13:09:36.361Z,63.18
2022-08-26T13:12:04.418Z,63.38
2022-08-26T13:14:33.381Z,63.18
2022-08-26T13:17:04.362Z,63.36
2022-08-26T13:19:32.458Z,63.35
2022-08-26T13:22:00.646Z,63.11
2022-08-26T13:24:30.038Z,63.44
2022-08-26T13:27:00.155Z,63.24
2022-08-26T13:29:27.761Z,63.44
2022-08-26T13:31:57.778Z,63.46
2022-08-26T13:34:25.495Z,63.42
2022-08-26T13:36:54.173Z,63.35
2022-08-26T13:39:22.079Z,63.52
2022-08-26T13:41:49.838Z,63.47
2022-08-26T13:44:17.695Z,63.29
2022-08-26T13:46:47.746Z,63.47
2022-08-26T13:49:16.953Z,63.42
2022-08-26T13:51:44.621Z,63.56
2022-08-26T13:54:12.256Z,63.40
2022-08-26T13:56:40.201Z,63.81
2022-08-26T13:59:07.899Z,64.21
2022-08-26T14:01:36.122Z,64.59
2022-08-26T14:04:04.235Z,64.46
2022-08-26T14:06:33.521Z,64.64
2022-08-26T14:09:01.517Z,65.42
2022-08-26T14:11:30.254Z,65.63
2022-08-26T14:14:16.750Z,65.11
2022-08-26T14:16:59.718Z,64.75
2022-08-26T14:19:28.651Z,64.15
2022-08-26T14:21:58.865Z,63.87
2022-08-26T14:24:26.570Z,63.92
2022-08-26T14:26:54.228Z,63.91
2022-08-26T14:29:22.156Z,63.73
2022-08-26T14:31:49.895Z,63.81
2022-08-26T14:34:17.866Z,63.65
2022-08-26T14:36:45.500Z,63.63
2022-08-26T14:39:14.859Z,63.66
2022-08-26T14:41:43.904Z,63.69
2022-08-26T14:44:12.582Z,63.74
2022-08-26T14:46:44.865Z,63.59
2022-08-26T14:49:12.740Z,63.66
2022-08-26T14:51:41.058Z,63.50
2022-08-26T14:54:13.867Z,64.34
2022-08-26T14:56:44.092Z,64.55
2022-08-26T14:59:11.768Z,64.23
2022-08-26T15:01:39.587Z,64.02
2022-08-26T15:04:07.344Z,64.52
2022-08-26T15:06:35.716Z,64.91
2022-08-26T15:09:03.418Z,64.72
2022-08-26T15:11:31.121Z,64.79
2022-08-26T15:14:00.887Z,65.09
2022-08-26T15:16:29.299Z,65.07
2022-08-26T15:18:56.945Z,65.12
2022-08-26T15:21:24.621Z,64.99
2022-08-26T15:23:52.629Z,65.01
2022-08-26T15:26:21.187Z,64.96
2022-08-26T15:28:48.943Z,64.73
2022-08-26T15:31:17.923Z,64.69
2022-08-26T15:33:45.890Z,64.59
2022-08-26T15:36:13.524Z,64.59
2022-08-26T15:38:41.497Z,64.59
2022-08-26T15:41:09.384Z,64.56
2022-08-26T15:43:37.271Z,64.46
2022-08-26T15:46:05.153Z,64.72
2022-08-26T15:48:34.353Z,64.75
2022-08-26T15:51:02.129Z,64.84
2022-08-26T15:53:30.100Z,64.61
2022-08-26T15:55:57.800Z,64.74
2022-08-26T15:58:26.403Z,64.65
2022-08-26T16:00:54.878Z,64.49
2022-08-26T16:03:22.668Z,64.88
2022-08-26T16:05:52.013Z,64.81
2022-08-26T16:08:20.375Z,64.49
2022-08-26T16:10:50.685Z,64.93
2022-08-26T16:13:18.958Z,64.69
2022-08-26T16:15:47.459Z,64.25
2022-08-26T16:18:15.637Z,64.46
2022-08-26T16:20:55.364Z,65.48
2022-08-26T16:23:37.608Z,65.77
2022-08-26T16:26:10.584Z,65.21
2022-08-26T16:28:38.437Z,65.79
2022-08-26T16:31:08.368Z,66.25
2022-08-26T16:33:37.705Z,66.56
2022-08-26T16:36:05.628Z,66.53
2022-08-26T16:38:33.301Z,66.46
2022-08-26T16:41:02.254Z,66.82
2022-08-26T16:43:29.890Z,66.77
2022-08-26T16:45:57.658Z,66.24
2022-08-26T16:48:25.347Z,66.49
2022-08-26T16:50:55.403Z,66.02
2022-08-26T16:53:23.258Z,66.98
2022-08-26T16:55:51.404Z,66.47
2022-08-26T16:58:23.570Z,66.71
2022-08-26T17:00:51.266Z,66.92
2022-08-26T17:03:18.903Z,66.38
2022-08-26T17:05:46.634Z,66.67
2022-08-26T17:08:24.251Z,66.84
2022-08-26T17:10:56.028Z,66.29
2022-08-26T17:13:35.931Z,66.45
2022-08-26T17:16:05.022Z,66.42
2022-08-26T17:18:33.350Z,66.22
2022-08-26T17:21:01.528Z,66.30
2022-08-26T17:23:29.777Z,66.29
2022-08-26T17:25:57.722Z,66.02
2022-08-26T17:28:26.780Z,66.33
2022-08-26T17:30:56.155Z,65.75
2022-08-26T17:33:24.781Z,65.85
2022-08-26T17:35:52.959Z,65.97
2022-08-26T17:38:20.784Z,66.15
2022-08-26T17:40:48.545Z,66.34
2022-08-26T17:43:16.728Z,65.93
2022-08-26T17:45:45.636Z,66.08
2022-08-26T17:48:13.211Z,65.75
2022-08-26T17:50:41.215Z,65.62
2022-08-26T17:53:08.975Z,66.05
2022-08-26T17:55:41.417Z,65.93
2022-08-26T17:58:14.661Z,65.74
2022-08-26T18:00:44.902Z,66.14
2022-08-26T18:03:12.567Z,66.31
2022-08-26T18:05:40.162Z,65.73
2022-08-26T18:08:11.051Z,65.76
2022-08-26T18:10:43.752Z,66.02
2022-08-26T18:13:11.491Z,65.75
2022-08-26T18:15:40.062Z,65.64
2022-08-26T18:18:09.289Z,65.52
2022-08-26T18:20:38.692Z,65.42
2022-08-26T18:23:06.619Z,65.71
2022-08-26T18:25:34.521Z,65.69
2022-08-26T18:28:04.135Z,65.53
2022-08-26T18:30:31.807Z,65.76
2022-08-26T18:32:59.580Z,65.52
2022-08-26T18:35:30.351Z,66.01
2022-08-26T18:37:58.326Z,65.90
2022-08-26T18:40:30.029Z,66.08
2022-08-26T18:42:57.878Z,65.60
2022-08-26T18:45:25.714Z,65.95
2022-08-26T18:47:53.533Z,66.25
2022-08-26T18:50:21.222Z,65.97
2022-08-26T18:52:50.370Z,66.01
2022-08-26T18:55:18.024Z,65.50
2022-08-26T18:57:45.656Z,65.66
2022-08-26T19:00:13.818Z,67.26
2022-08-26T19:02:41.478Z,67.85
2022-08-26T19:05:14.587Z,68.52
2022-08-26T19:07:42.212Z,68.85
2022-08-26T19:10:14.814Z,69.12
2022-08-26T19:12:42.563Z,68.67
2022-08-26T19:15:11.996Z,68.51
2022-08-26T19:17:39.592Z,68.96
2022-08-26T19:20:07.923Z,68.96
2022-08-26T19:22:35.542Z,69.39
2022-08-26T19:25:05.395Z,68.37
2022-08-26T19:27:34.616Z,68.11
2022-08-26T19:30:02.338Z,67.92
2022-08-26T19:32:30.193Z,67.85
2022-08-26T19:34:58.064Z,68.05
2022-08-26T19:37:26.250Z,68.13
2022-08-26T19:39:53.989Z,67.99
2022-08-26T19:42:21.580Z,68.05
2022-08-26T19:45:24.569Z,68.16
2022-08-26T19:47:54.136Z,68.44
2022-08-26T19:50:22.147Z,68.65
2022-08-26T19:52:53.035Z,68.71
2022-08-26T19:55:23.676Z,68.63
2022-08-26T19:57:52.397Z,68.50
2022-08-26T20:00:22.353Z,68.50
2022-08-26T20:02:50.305Z,68.89
2022-08-26T20:05:18.126Z,68.76
2022-08-26T20:07:45.795Z,68.86
2022-08-26T20:10:13.612Z,69.02
2022-08-26T20:12:41.618Z,69.12
2022-08-26T20:15:09.557Z,68.95
2022-08-26T20:17:38.714Z,68.68
2022-08-26T20:20:32.898Z,68.60
2022-08-26T20:23:02.080Z,68.83
2022-08-26T20:25:29.928Z,69.00
2022-08-26T20:28:00.797Z,69.31
2022-08-26T20:30:28.592Z,69.24
2022-08-26T20:32:57.790Z,69.11
2022-08-26T20:35:25.844Z,69.31
2022-08-26T20:38:01.110Z,69.39
2022-08-26T20:40:29.081Z,69.08
2022-08-26T20:42:56.732Z,69.12
2022-08-26T20:45:24.572Z,69.51
2022-08-26T20:47:54.724Z,69.45
2022-08-26T20:50:23.961Z,69.54
2022-08-26T20:52:53.784Z,69.45
2022-08-26T20:55:21.495Z,69.80
2022-08-26T20:57:49.162Z,69.48
2022-08-26T21:00:22.412Z,69.39
2022-08-26T21:02:54.242Z,69.37
2022-08-26T21:05:25.490Z,69.50
2022-08-26T21:07:55.802Z,69.40
2022-08-26T21:10:23.884Z,69.46
2022-08-26T21:12:51.633Z,69.31
2022-08-26T21:15:24.911Z,69.50
2022-08-26T21:18:00.420Z,69.70
2022-08-26T21:20:37.085Z,69.65
2022-08-26T21:23:05.210Z,69.93
2022-08-26T21:25:35.566Z,69.69
2022-08-26T21:28:03.220Z,70.11
2022-08-26T21:30:31.313Z,69.50
2022-08-26T21:32:59.182Z,69.45
2022-08-26T21:35:27.026Z,69.69
2022-08-26T21:38:16.440Z,69.53
2022-08-26T21:40:46.424Z,69.81
2022-08-26T21:43:34.929Z,69.95
2022-08-26T21:46:03.993Z,70.07
2022-08-26T21:48:34.636Z,69.69
2022-08-26T21:51:03.212Z,69.84
2022-08-26T21:53:32.359Z,70.12
2022-08-26T21:56:00.029Z,70.11
2022-08-26T21:58:28.303Z,69.65
2022-08-26T22:00:56.091Z,70.55
2022-08-26T22:03:23.879Z,70.31
2022-08-26T22:05:51.630Z,69.85
2022-08-26T22:08:20.518Z,69.95
2022-08-26T22:10:52.003Z,69.92
2022-08-26T22:13:20.180Z,69.83
2022-08-26T22:15:47.953Z,69.88
2022-08-26T22:18:15.784Z,70.14
2022-08-26T22:20:46.238Z,70.02
2022-08-26T22:23:14.094Z,70.21
2022-08-26T22:25:41.894Z,70.36
2022-08-26T22:28:11.168Z,70.27
2022-08-26T22:30:39.861Z,70.35
2022-08-26T22:33:07.788Z,70.18
2022-08-26T22:35:38.862Z,70.28
2022-08-26T22:38:06.753Z,70.27
2022-08-26T22:40:34.910Z,70.02
2022-08-26T22:43:03.283Z,70.12
2022-08-26T22:45:32.405Z,70.16
2022-08-26T22:48:00.406Z,70.27
2022-08-26T22:50:28.912Z,70.34
2022-08-26T22:52:56.846Z,70.87
2022-08-26T22:55:24.788Z,71.07
2022-08-26T22:57:52.525Z,71.04
2022-08-26T23:00:20.240Z,71.14
2022-08-26T23:03:04.450Z,71.00
2022-08-26T23:05:36.639Z,70.85
2022-08-26T23:08:04.681Z,71.13
2022-08-26T23:10:32.614Z,71.26
2022-08-26T23:13:00.368Z,71.25
2022-08-26T23:15:28.262Z,71.09
2022-08-26T23:17:58.517Z,71.27
2022-08-26T23:20:38.544Z,71.56
2022-08-26T23:23:06.429Z,71.51
2022-08-26T23:25:34.201Z,71.29
2022-08-26T23:28:01.919Z,71.49
2022-08-26T23:30:30.117Z,71.42
2022-08-26T23:33:01.364Z,71.48
2022-08-26T23:35:31.902Z,71.85
2022-08-26T23:38:01.969Z,71.69
2022-08-26T23:40:32.103Z,71.56
2022-08-26T23:43:00.136Z,71.49
2022-08-26T23:45:28.044Z,71.65
2022-08-26T23:47:55.854Z,71.60
2022-08-26T23:50:44.504Z,71.62
2022-08-26T23:53:19.322Z,71.51
2022-08-26T23:55:48.093Z,71.54
2022-08-26T23:58:16.064Z,71.48
